Time;durP1;ratioP1;P1;durP2;ratioP2;P2;SDS_P1;SDS_P2;PMS_P1;PMS_P2;Temp;Humidity;BMP_temperature;BMP_pressure;BME280_temperature;BME280_humidity;BME280_pressure;Samples;Min_cycle;Max_cycle;Signal;HPM_P1;HPM_P2
2022/05/01 00:01:24;;;;;;;;;;;;;;;9.20;100.00;102500.50;2607160;36;20932;-53
2022/05/01 00:03:52;;;;;;;;;;;;;;;9.20;100.00;102502.31;2607056;36;20427;-54
2022/05/01 00:06:20;;;;;;;;;;;;;;;9.17;100.00;102495.31;2607711;36;20411;-51
2022/05/01 00:08:48;;;;;;;;;;;;;;;9.18;100.00;102491.66;2606623;36;19985;-51
2022/05/01 00:11:18;;;;;;;;;;;;;;;9.17;100.00;102495.31;2607250;36;19951;-52
2022/05/01 00:13:48;;;;;;;;;;;;;;;9.15;100.00;102496.34;2607680;36;22347;-55
2022/05/01 00:16:16;;;;;;;;;;;;;;;9.04;100.00;102499.59;2606598;36;19946;-49
2022/05/01 00:18:44;;;;;;;;;;;;;;;8.95;100.00;102495.63;2606781;36;20519;-52
2022/05/01 00:21:13;;;;;;;;;;;;;;;8.81;100.00;102504.44;2607948;31;19950;-54
2022/05/01 00:23:41;;;;;;;;;;;;;;;8.76;100.00;102491.28;2607030;36;20529;-52
2022/05/01 00:26:09;;;;;;;;;;;;;;;8.83;100.00;102496.31;2607703;36;19984;-48
2022/05/01 00:28:40;;;;;;;;;;;;;;;8.85;100.00;102497.97;2608418;36;20498;-49
2022/05/01 00:31:09;;;;;;;;;;;;;;;8.89;100.00;102491.47;2607886;36;20416;-54
2022/05/01 00:39:04;;;;;;;;;;;;;;;8.66;100.00;102487.38;2606994;36;20506;-53
2022/05/01 00:41:32;;;;;;;;;;;;;;;8.63;100.00;102484.84;2606927;36;19992;-51
2022/05/01 00:44:08;;;;;;;;;;;;;;;8.57;100.00;102487.88;2607439;36;20583;-50
2022/05/01 00:46:37;;;;;;;;;;;;;;;8.50;100.00;102489.16;2606813;36;20393;-49
2022/05/01 00:49:08;;;;;;;;;;;;;;;8.39;100.00;102489.66;2607101;36;20066;-51
2022/05/01 00:51:37;;;;;;;;;;;;;;;8.32;100.00;102488.25;2607850;36;20459;-52
2022/05/01 00:54:07;;;;;;;;;;;;;;;8.27;100.00;102488.50;2607377;36;20045;-49
2022/05/01 00:56:36;;;;;;;;;;;;;;;8.21;100.00;102487.00;2606732;36;20510;-50
2022/05/01 00:59:07;;;;;;;;;;;;;;;8.19;100.00;102474.66;2606541;36;20077;-49
2022/05/01 01:01:35;;;;;;;;;;;;;;;8.12;100.00;102483.97;2607336;36;20489;-52
2022/05/01 01:04:03;;;;;;;;;;;;;;;7.99;100.00;102478.34;2607050;36;20444;-50
2022/05/01 01:06:32;;;;;;;;;;;;;;;7.94;100.00;102473.25;2607189;36;20466;-48
2022/05/01 01:09:00;;;;;;;;;;;;;;;7.87;100.00;102474.50;2607420;36;19950;-51
2022/05/01 01:11:28;;;;;;;;;;;;;;;7.81;100.00;102469.47;2606840;36;19973;-57
2022/05/01 01:13:56;;;;;;;;;;;;;;;7.77;100.00;102475.91;2606773;36;20037;-52
2022/05/01 01:16:27;;;;;;;;;;;;;;;7.72;100.00;102479.69;2606528;36;20094;-49
2022/05/01 01:18:57;;;;;;;;;;;;;;;7.65;100.00;102475.56;2607895;36;20487;-53
2022/05/01 01:21:28;;;;;;;;;;;;;;;7.50;100.00;102471.88;2606692;36;19951;-55
2022/05/01 01:23:56;;;;;;;;;;;;;;;7.42;100.00;102473.19;2606751;36;20469;-50
2022/05/01 01:26:24;;;;;;;;;;;;;;;7.35;100.00;102478.00;2607255;36;19955;-49
2022/05/01 01:28:53;;;;;;;;;;;;;;;7.44;100.00;102474.00;2609316;36;20069;-55
2022/05/01 01:34:06;;;;;;;;;;;;;;;7.34;100.00;102471.75;2606572;36;19962;-48
2022/05/01 01:36:38;;;;;;;;;;;;;;;7.22;100.00;102476.84;2607279;36;19954;-52
2022/05/01 01:39:06;;;;;;;;;;;;;;;7.15;100.00;102476.28;2606345;36;19977;-49
2022/05/01 01:41:34;;;;;;;;;;;;;;;7.09;100.00;102479.25;2606461;36;20474;-52
2022/05/01 01:44:02;;;;;;;;;;;;;;;7.00;100.00;102483.22;2606589;36;20196;-57
2022/05/01 01:46:31;;;;;;;;;;;;;;;6.98;100.00;102469.06;2607479;31;19980;-52
2022/05/01 01:48:59;;;;;;;;;;;;;;;6.98;100.00;102482.44;2606384;36;20348;-52
2022/05/01 01:51:27;;;;;;;;;;;;;;;6.85;100.00;102479.47;2606316;36;19982;-50
2022/05/01 01:53:58;;;;;;;;;;;;;;;6.75;100.00;102478.16;2606834;36;19946;-53
2022/05/01 01:56:26;;;;;;;;;;;;;;;6.78;100.00;102478.03;2607037;36;19946;-54
2022/05/01 01:58:54;;;;;;;;;;;;;;;6.75;100.00;102467.47;2585009;36;19962;-50
2022/05/01 02:01:22;;;;;;;;;;;;;;;6.75;100.00;102473.69;2607420;36;19946;-53
2022/05/01 02:03:50;;;;;;;;;;;;;;;6.81;100.00;102484.09;2606889;36;20316;-50
2022/05/01 02:06:19;;;;;;;;;;;;;;;6.77;100.00;102473.59;2606712;36;19947;-48
2022/05/01 02:08:48;;;;;;;;;;;;;;;6.79;100.00;102472.59;2605911;36;19946;-55
2022/05/01 02:11:20;;;;;;;;;;;;;;;6.73;100.00;102483.59;2607140;36;20513;-49
2022/05/01 02:13:48;;;;;;;;;;;;;;;6.64;100.00;102471.50;2607620;36;20466;-48
2022/05/01 02:16:17;;;;;;;;;;;;;;;6.57;100.00;102477.22;2607068;36;20029;-53
2022/05/01 02:18:45;;;;;;;;;;;;;;;6.58;100.00;102477.16;2606788;36;19951;-55
2022/05/01 02:23:54;;;;;;;;;;;;;;;6.51;100.00;102475.69;2606670;36;19962;-50
2022/05/01 02:26:25;;;;;;;;;;;;;;;6.47;100.00;102464.25;2606364;36;20395;-49
2022/05/01 02:28:53;;;;;;;;;;;;;;;6.44;100.00;102471.56;2608039;36;20647;-53
2022/05/01 02:31:22;;;;;;;;;;;;;;;6.38;100.00;102459.31;2606438;36;20378;-52
2022/05/01 02:33:50;;;;;;;;;;;;;;;6.27;100.00;102458.94;2606731;36;19950;-54
2022/05/01 02:36:18;;;;;;;;;;;;;;;6.22;100.00;102463.63;2605973;36;20053;-56
2022/05/01 02:38:47;;;;;;;;;;;;;;;6.12;100.00;102463.16;2607246;36;20431;-51
2022/05/01 02:41:16;;;;;;;;;;;;;;;6.05;100.00;102461.69;2606674;36;20014;-52
2022/05/01 02:43:46;;;;;;;;;;;;;;;5.98;100.00;102458.44;2607094;31;19956;-51
2022/05/01 02:46:15;;;;;;;;;;;;;;;5.89;100.00;102456.97;2606541;31;20553;-56
2022/05/01 02:48:43;;;;;;;;;;;;;;;5.83;100.00;102457.25;2607236;36;20078;-47
2022/05/01 02:51:12;;;;;;;;;;;;;;;5.79;100.00;102461.84;2605621;36;20177;-49
2022/05/01 02:53:40;;;;;;;;;;;;;;;5.67;100.00;102459.72;2606613;31;20502;-55
2022/05/01 02:56:09;;;;;;;;;;;;;;;5.73;100.00;102445.22;2606707;36;19950;-51
2022/05/01 02:58:37;;;;;;;;;;;;;;;5.67;100.00;102445.47;2606861;36;20440;-52
2022/05/01 03:01:08;;;;;;;;;;;;;;;5.60;100.00;102456.41;2605987;36;20061;-49
2022/05/01 03:03:36;;;;;;;;;;;;;;;5.55;100.00;102447.75;2606240;36;19951;-51
2022/05/01 03:06:04;;;;;;;;;;;;;;;5.55;100.00;102449.53;2606467;36;20061;-54
2022/05/01 03:08:32;;;;;;;;;;;;;;;5.48;100.00;102443.59;2606355;36;20465;-49
2022/05/01 03:11:00;;;;;;;;;;;;;;;5.38;100.00;102444.91;2606532;36;19957;-49
2022/05/01 03:13:29;;;;;;;;;;;;;;;5.35;100.00;102448.56;2607460;36;20377;-50
2022/05/01 03:15:57;;;;;;;;;;;;;;;5.36;100.00;102441.41;2606340;36;20013;-57
2022/05/01 03:23:49;;;;;;;;;;;;;;;5.22;100.00;102440.16;2605734;36;19946;-52
2022/05/01 03:26:18;;;;;;;;;;;;;;;5.15;100.00;102444.00;2605882;36;20046;-48
2022/05/01 03:28:47;;;;;;;;;;;;;;;5.12;100.00;102432.59;2606361;36;19946;-51
2022/05/01 03:31:15;;;;;;;;;;;;;;;5.05;100.00;102434.63;2606232;36;19950;-48
2022/05/01 03:33:46;;;;;;;;;;;;;;;5.01;100.00;102436.56;2606228;36;19961;-51
2022/05/01 03:36:14;;;;;;;;;;;;;;;5.07;100.00;102446.16;2605673;36;19950;-50
2022/05/01 03:38:43;;;;;;;;;;;;;;;5.00;100.00;102444.66;2606602;36;20077;-48
2022/05/01 03:41:15;;;;;;;;;;;;;;;4.95;100.00;102446.59;2606093;36;19994;-49
2022/05/01 03:43:43;;;;;;;;;;;;;;;4.93;100.00;102448.47;2606932;36;19951;-54
2022/05/01 03:46:11;;;;;;;;;;;;;;;4.92;100.00;102447.63;2606569;36;20444;-51
2022/05/01 03:48:39;;;;;;;;;;;;;;;4.89;100.00;102447.75;2606001;36;20012;-49
2022/05/01 03:51:10;;;;;;;;;;;;;;;4.80;100.00;102440.09;2606193;36;20565;-51
2022/05/01 03:53:38;;;;;;;;;;;;;;;4.71;100.00;102442.19;2605751;36;19984;-49
2022/05/01 03:56:06;;;;;;;;;;;;;;;4.82;100.00;102430.25;2607120;36;19954;-49
2022/05/01 03:58:34;;;;;;;;;;;;;;;4.76;100.00;102436.69;2606554;36;19962;-50
2022/05/01 04:01:02;;;;;;;;;;;;;;;4.71;100.00;102433.31;2606030;31;20050;-52
2022/05/01 04:03:31;;;;;;;;;;;;;;;4.85;100.00;102438.97;2601174;36;19946;-53
2022/05/01 04:06:02;;;;;;;;;;;;;;;4.81;100.00;102442.69;2606727;47;19978;-53
2022/05/01 04:08:32;;;;;;;;;;;;;;;4.84;100.00;102442.56;2606136;36;20070;-51
2022/05/01 04:11:01;;;;;;;;;;;;;;;4.46;100.00;102449.38;2606621;36;20343;-54
2022/05/01 04:13:30;;;;;;;;;;;;;;;4.24;100.00;102439.53;2605966;36;19973;-56
2022/05/01 04:15:58;;;;;;;;;;;;;;;4.20;100.00;102445.88;2606645;36;19961;-51
2022/05/01 04:18:26;;;;;;;;;;;;;;;4.12;100.00;102456.81;2605514;36;19951;-50
2022/05/01 04:20:55;;;;;;;;;;;;;;;4.09;100.00;102446.25;2605279;36;20310;-51
2022/05/01 04:23:23;;;;;;;;;;;;;;;4.60;100.00;102446.19;2605593;36;19972;-51
2022/05/01 04:25:53;;;;;;;;;;;;;;;4.14;100.00;102451.44;2605752;36;19950;-49
2022/05/01 04:28:21;;;;;;;;;;;;;;;4.63;100.00;102446.09;2605531;36;19955;-56
2022/05/01 04:30:50;;;;;;;;;;;;;;;4.66;100.00;102456.63;2605531;36;19965;-49
2022/05/01 04:33:18;;;;;;;;;;;;;;;4.69;100.00;102445.84;2607063;36;19962;-56
2022/05/01 04:35:48;;;;;;;;;;;;;;;4.79;100.00;102447.22;2607188;36;19950;-52
2022/05/01 04:38:17;;;;;;;;;;;;;;;4.75;100.00;102440.25;2605995;36;19950;-51
2022/05/01 04:40:46;;;;;;;;;;;;;;;4.39;100.00;102449.59;2609890;36;20444;-48
2022/05/01 04:43:17;;;;;;;;;;;;;;;4.68;100.00;102449.44;2611531;31;20507;-49
2022/05/01 04:45:46;;;;;;;;;;;;;;;4.43;100.00;102444.16;2610648;36;19951;-49
2022/05/01 04:48:15;;;;;;;;;;;;;;;4.75;100.00;102445.59;2610378;36;19955;-49
2022/05/01 04:50:43;;;;;;;;;;;;;;;4.66;100.00;102448.63;2611353;36;20437;-49
2022/05/01 04:53:12;;;;;;;;;;;;;;;4.57;100.00;102461.38;2610604;36;19954;-51
2022/05/01 04:55:41;;;;;;;;;;;;;;;4.79;100.00;102454.38;2611344;36;19946;-51
2022/05/01 04:58:09;;;;;;;;;;;;;;;4.59;100.00;102465.78;2611338;36;20362;-49
2022/05/01 05:00:40;;;;;;;;;;;;;;;4.53;100.00;102462.44;2611561;31;20113;-50
2022/05/01 05:03:08;;;;;;;;;;;;;;;4.83;100.00;102464.84;2611897;36;19992;-54
2022/05/01 05:05:37;;;;;;;;;;;;;;;4.49;100.00;102466.13;2611380;36;19955;-53
2022/05/01 05:10:46;;;;;;;;;;;;;;;4.73;100.00;102467.00;2611853;36;20366;-53
2022/05/01 05:13:17;;;;;;;;;;;;;;;4.88;100.00;102473.53;2611100;36;19953;-50
2022/05/01 05:15:47;;;;;;;;;;;;;;;5.01;100.00;102470.41;2611109;36;19951;-55
2022/05/01 05:18:15;;;;;;;;;;;;;;;5.11;100.00;102474.44;2611178;36;19951;-54
2022/05/01 05:20:44;;;;;;;;;;;;;;;5.44;100.00;102477.53;2612247;31;20046;-49
2022/05/01 05:23:12;;;;;;;;;;;;;;;5.62;100.00;102477.72;2612146;36;20034;-49
2022/05/01 05:25:40;;;;;;;;;;;;;;;5.78;100.00;102469.94;2610841;36;19950;-48
2022/05/01 05:28:08;;;;;;;;;;;;;;;5.92;100.00;102488.06;2611430;36;19950;-53
2022/05/01 05:30:36;;;;;;;;;;;;;;;5.95;100.00;102482.59;2597858;36;20850;-52
2022/05/01 05:33:08;;;;;;;;;;;;;;;6.15;100.00;102479.06;2604830;36;20069;-54
2022/05/01 05:35:36;;;;;;;;;;;;;;;6.49;100.00;102489.13;2610937;36;19946;-54
2022/05/01 05:38:04;;;;;;;;;;;;;;;6.86;100.00;102483.00;2610773;36;19976;-52
2022/05/01 05:40:32;;;;;;;;;;;;;;;6.81;100.00;102484.09;2611145;36;20069;-50
2022/05/01 05:43:00;;;;;;;;;;;;;;;7.14;100.00;102487.91;2611475;36;20061;-55
2022/05/01 05:45:28;;;;;;;;;;;;;;;7.21;100.00;102481.31;2611187;36;19950;-50
2022/05/01 05:47:56;;;;;;;;;;;;;;;7.24;100.00;102485.66;2611542;31;19950;-50
2022/05/01 05:50:26;;;;;;;;;;;;;;;7.39;100.00;102484.06;2610674;36;19950;-51
2022/05/01 05:52:54;;;;;;;;;;;;;;;7.49;100.00;102488.00;2611176;36;19950;-49
2022/05/01 05:55:22;;;;;;;;;;;;;;;7.70;100.00;102483.41;2611103;36;19969;-58
2022/05/01 05:57:50;;;;;;;;;;;;;;;7.85;100.00;102489.81;2610882;36;20041;-48
2022/05/01 06:00:19;;;;;;;;;;;;;;;7.95;100.00;102488.38;2610937;36;20370;-57
2022/05/01 06:02:47;;;;;;;;;;;;;;;8.11;100.00;102488.44;2610403;36;19993;-53
2022/05/01 06:05:15;;;;;;;;;;;;;;;8.04;100.00;102497.78;2609408;36;19950;-51
2022/05/01 06:07:45;;;;;;;;;;;;;;;8.04;100.00;102492.41;2610285;36;19950;-51
2022/05/01 06:10:13;;;;;;;;;;;;;;;8.29;100.00;102497.34;2609933;36;19947;-50
2022/05/01 06:12:44;;;;;;;;;;;;;;;8.34;100.00;102495.28;2610576;36;20081;-51
2022/05/01 06:15:13;;;;;;;;;;;;;;;8.55;100.00;102492.44;2610935;31;20070;-53
2022/05/01 06:17:41;;;;;;;;;;;;;;;8.92;100.00;102491.31;2611369;36;20603;-53
2022/05/01 06:20:09;;;;;;;;;;;;;;;8.98;100.00;102494.59;2612407;31;20460;-49
2022/05/01 06:22:37;;;;;;;;;;;;;;;9.12;100.00;102486.63;2610920;31;20081;-49
2022/05/01 06:25:09;;;;;;;;;;;;;;;9.12;100.00;102487.47;2609598;36;20037;-49
2022/05/01 06:27:37;;;;;;;;;;;;;;;9.25;100.00;102492.19;2610279;36;20037;-55
2022/05/01 06:30:06;;;;;;;;;;;;;;;9.29;100.00;102485.69;2609506;36;19954;-55
2022/05/01 06:32:35;;;;;;;;;;;;;;;9.59;100.00;102484.84;2610273;36;19954;-48
2022/05/01 06:35:03;;;;;;;;;;;;;;;10.05;100.00;102481.25;2610874;36;20069;-52
2022/05/01 06:37:31;;;;;;;;;;;;;;;10.21;100.00;102481.19;2610611;36;19958;-53
2022/05/01 06:39:59;;;;;;;;;;;;;;;10.24;100.00;102487.22;2611994;36;20719;-56
2022/05/01 06:42:34;;;;;;;;;;;;;;;10.21;100.00;102491.94;2611276;36;20932;-51
2022/05/01 06:45:02;;;;;;;;;;;;;;;10.14;100.00;102492.34;2610225;36;20046;-53
2022/05/01 06:47:30;;;;;;;;;;;;;;;10.37;100.00;102491.91;2610074;36;19962;-51
2022/05/01 06:49:58;;;;;;;;;;;;;;;10.27;100.00;102478.97;2610345;36;19985;-51
2022/05/01 06:52:26;;;;;;;;;;;;;;;10.62;100.00;102488.56;2610717;36;20073;-49
2022/05/01 06:54:54;;;;;;;;;;;;;;;10.66;100.00;102487.41;2610939;36;19947;-54
2022/05/01 06:57:23;;;;;;;;;;;;;;;10.93;100.00;102487.47;2610553;36;19950;-50
2022/05/01 06:59:55;;;;;;;;;;;;;;;11.07;100.00;102481.22;2611267;36;19951;-52
2022/05/01 07:02:23;;;;;;;;;;;;;;;11.27;100.00;102473.63;2610609;36;19957;-51
2022/05/01 07:04:51;;;;;;;;;;;;;;;11.31;100.00;102473.34;2611046;36;19969;-50
2022/05/01 07:07:19;;;;;;;;;;;;;;;11.29;100.00;102474.38;2611344;36;20442;-53
2022/05/01 07:09:46;;;;;;;;;;;;;;;11.78;100.00;102481.91;2611122;36;19950;-55
2022/05/01 07:12:14;;;;;;;;;;;;;;;12.05;100.00;102479.16;2610164;36;20533;-52
2022/05/01 07:14:43;;;;;;;;;;;;;;;11.31;100.00;102469.78;2609915;36;19947;-53
2022/05/01 07:17:14;;;;;;;;;;;;;;;11.53;100.00;102472.78;2610941;36;20100;-54
2022/05/01 07:19:41;;;;;;;;;;;;;;;12.27;100.00;102475.84;2611191;36;20065;-56
2022/05/01 07:22:09;;;;;;;;;;;;;;;12.71;100.00;102470.97;2610862;36;19950;-57
2022/05/01 07:24:37;;;;;;;;;;;;;;;12.78;100.00;102471.41;2610545;36;19951;-56
2022/05/01 07:27:06;;;;;;;;;;;;;;;12.35;100.00;102466.34;2611142;36;20657;-55
2022/05/01 07:29:34;;;;;;;;;;;;;;;12.66;100.00;102466.84;2610264;36;20057;-54
2022/05/01 07:32:02;;;;;;;;;;;;;;;12.36;100.00;102473.47;2611365;31;20481;-54
2022/05/01 07:34:32;;;;;;;;;;;;;;;12.22;100.00;102474.44;2610101;36;19981;-59
2022/05/01 07:37:00;;;;;;;;;;;;;;;12.59;100.00;102472.69;2610459;36;19977;-54
2022/05/01 07:39:29;;;;;;;;;;;;;;;13.03;100.00;102464.16;2611213;31;20446;-52
2022/05/01 07:41:57;;;;;;;;;;;;;;;12.90;100.00;102465.09;2610461;36;19950;-57
2022/05/01 07:44:25;;;;;;;;;;;;;;;12.91;100.00;102465.94;2608929;36;20382;-53
2022/05/01 07:46:53;;;;;;;;;;;;;;;12.56;100.00;102472.06;2610228;36;19976;-56
2022/05/01 07:49:21;;;;;;;;;;;;;;;12.78;100.00;102469.53;2611021;36;19951;-56
2022/05/01 07:51:52;;;;;;;;;;;;;;;12.39;100.00;102473.25;2611280;36;20034;-50
2022/05/01 07:54:20;;;;;;;;;;;;;;;12.82;100.00;102466.63;2609768;36;19986;-57
2022/05/01 07:56:48;;;;;;;;;;;;;;;12.96;100.00;102461.94;2610389;31;20042;-50
2022/05/01 07:59:16;;;;;;;;;;;;;;;12.90;100.00;102462.38;2610507;31;20034;-52
2022/05/01 08:01:44;;;;;;;;;;;;;;;13.30;100.00;102466.69;2609302;36;19957;-54
2022/05/01 08:06:55;;;;;;;;;;;;;;;13.20;100.00;102454.84;2611229;31;20579;-54
2022/05/01 08:09:23;;;;;;;;;;;;;;;12.89;100.00;102460.66;2610854;36;19951;-53
2022/05/01 08:11:51;;;;;;;;;;;;;;;12.84;100.00;102460.13;2610391;36;19993;-50
2022/05/01 08:14:20;;;;;;;;;;;;;;;12.36;100.00;102468.06;2609983;36;19969;-57
2022/05/01 08:16:48;;;;;;;;;;;;;;;12.77;100.00;102464.25;2610753;36;19976;-51
2022/05/01 08:22:00;;;;;;;;;;;;;;;13.05;100.00;102464.94;2611429;36;19953;-54
2022/05/01 08:24:28;;;;;;;;;;;;;;;13.06;100.00;102456.72;2610238;36;20185;-50
2022/05/01 08:26:56;;;;;;;;;;;;;;;12.76;100.00;102455.28;2610937;36;20143;-52
2022/05/01 08:29:24;;;;;;;;;;;;;;;12.61;100.00;102456.38;2610576;36;19966;-56
2022/05/01 08:31:52;;;;;;;;;;;;;;;12.73;100.00;102457.34;2610014;31;19950;-53
2022/05/01 08:34:20;;;;;;;;;;;;;;;12.55;100.00;102459.53;2609491;36;20081;-54
2022/05/01 08:36:48;;;;;;;;;;;;;;;13.09;100.00;102458.34;2610283;36;19946;-52
2022/05/01 08:39:18;;;;;;;;;;;;;;;13.30;100.00;102462.13;2610267;36;19962;-55
2022/05/01 08:41:46;;;;;;;;;;;;;;;12.33;100.00;102465.59;2610283;31;19972;-54
2022/05/01 08:44:16;;;;;;;;;;;;;;;12.13;100.00;102464.28;2610158;36;19976;-52
2022/05/01 08:46:53;;;;;;;;;;;;;;;12.54;100.00;102463.19;2610762;36;19981;-52
2022/05/01 08:49:22;;;;;;;;;;;;;;;12.88;100.00;102455.34;2611026;31;20066;-52
2022/05/01 08:51:51;;;;;;;;;;;;;;;13.30;100.00;102445.91;2611135;36;19951;-53
2022/05/01 08:54:21;;;;;;;;;;;;;;;13.73;100.00;102447.22;2610421;31;19968;-52
2022/05/01 08:56:49;;;;;;;;;;;;;;;13.24;100.00;102449.06;2611114;36;20451;-55
2022/05/01 08:59:19;;;;;;;;;;;;;;;12.75;100.00;102450.84;2610752;36;19951;-50
2022/05/01 09:01:47;;;;;;;;;;;;;;;13.14;100.00;102450.75;2610290;36;19994;-49
2022/05/01 09:04:16;;;;;;;;;;;;;;;13.70;100.00;102441.19;2610284;36;19961;-50
2022/05/01 09:06:48;;;;;;;;;;;;;;;13.22;100.00;102437.53;2611083;31;20458;-54
2022/05/01 09:09:18;;;;;;;;;;;;;;;13.86;100.00;102433.63;2611820;36;20054;-50
2022/05/01 09:14:32;;;;;;;;;;;;;;;14.24;100.00;102440.59;2611215;36;19961;-52
2022/05/01 09:17:13;;;;;;;;;;;;;;;14.80;100.00;102430.75;2610808;36;20592;-53
2022/05/01 09:19:42;;;;;;;;;;;;;;;15.24;100.00;102440.63;2610819;36;20213;-52
2022/05/01 09:22:11;;;;;;;;;;;;;;;14.64;99.46;102437.41;2609003;36;19958;-56
2022/05/01 09:24:39;;;;;;;;;;;;;;;14.61;100.00;102437.66;2610918;36;19954;-56
2022/05/01 09:27:25;;;;;;;;;;;;;;;14.88;96.58;102436.41;2610975;36;20425;-55
2022/05/01 09:30:08;;;;;;;;;;;;;;;14.85;96.33;102433.94;2609234;36;19981;-56
2022/05/01 09:32:37;;;;;;;;;;;;;;;14.91;100.00;102432.59;2610174;31;19981;-52
2022/05/01 09:35:06;;;;;;;;;;;;;;;15.19;100.00;102436.56;2610007;36;19946;-52
2022/05/01 09:37:34;;;;;;;;;;;;;;;15.35;92.45;102438.88;2611143;36;20074;-53
2022/05/01 09:40:02;;;;;;;;;;;;;;;14.79;98.36;102440.72;2610862;36;20456;-54
2022/05/01 09:42:36;;;;;;;;;;;;;;;14.47;96.93;102440.59;2609601;36;19950;-53
2022/05/01 09:45:08;;;;;;;;;;;;;;;15.14;93.75;102427.97;2611018;36;20507;-53
2022/05/01 09:47:36;;;;;;;;;;;;;;;15.34;88.59;102438.03;2610352;36;20520;-52
2022/05/01 09:50:05;;;;;;;;;;;;;;;16.06;80.72;102447.31;2610622;36;19950;-50
2022/05/01 09:52:48;;;;;;;;;;;;;;;14.86;86.59;102441.09;2610745;36;20005;-50
2022/05/01 09:55:16;;;;;;;;;;;;;;;14.55;81.09;102438.13;2610495;36;20076;-53
2022/05/01 09:57:47;;;;;;;;;;;;;;;14.89;84.02;102435.44;2610766;36;20082;-50
2022/05/01 10:00:15;;;;;;;;;;;;;;;14.84;85.78;102434.91;2610736;36;20305;-50
2022/05/01 10:02:43;;;;;;;;;;;;;;;15.01;94.26;102431.69;2610926;36;19951;-54
2022/05/01 10:05:12;;;;;;;;;;;;;;;15.33;87.83;102428.16;2610798;36;19969;-53
2022/05/01 10:07:40;;;;;;;;;;;;;;;15.82;76.00;102425.00;2610658;36;20452;-51
2022/05/01 10:10:09;;;;;;;;;;;;;;;16.14;70.80;102432.22;2610276;36;19969;-51
2022/05/01 10:12:42;;;;;;;;;;;;;;;16.33;69.92;102426.88;2610169;36;20065;-54
2022/05/01 10:15:13;;;;;;;;;;;;;;;16.26;70.86;102425.69;2610157;36;19950;-54
2022/05/01 10:17:41;;;;;;;;;;;;;;;16.57;65.68;102417.53;2610960;36;19950;-53
2022/05/01 10:20:10;;;;;;;;;;;;;;;16.52;67.60;102420.66;2610537;36;19954;-50
2022/05/01 10:22:39;;;;;;;;;;;;;;;15.98;67.23;102422.69;2610693;31;19951;-52
2022/05/01 10:25:10;;;;;;;;;;;;;;;16.39;65.40;102410.03;2610470;36;20830;-54
2022/05/01 10:27:43;;;;;;;;;;;;;;;16.01;62.13;102413.41;2611014;36;19957;-51
2022/05/01 10:33:13;;;;;;;;;;;;;;;16.87;58.46;102410.31;2610750;36;20045;-50
2022/05/01 10:35:51;;;;;;;;;;;;;;;16.68;54.60;102401.13;2610712;36;20478;-53
2022/05/01 10:38:27;;;;;;;;;;;;;;;14.93;56.18;102398.94;2610720;36;19947;-50
2022/05/01 10:40:56;;;;;;;;;;;;;;;15.33;58.21;102400.19;2610786;36;19950;-53
2022/05/01 10:43:25;;;;;;;;;;;;;;;15.82;57.38;102403.28;2610957;36;19973;-50
2022/05/01 10:45:56;;;;;;;;;;;;;;;15.84;54.92;102399.44;2610522;36;20001;-54
2022/05/01 10:48:32;;;;;;;;;;;;;;;15.83;54.36;102392.28;2610373;36;19947;-52
2022/05/01 10:51:14;;;;;;;;;;;;;;;16.18;55.09;102390.19;2610698;36;20041;-51
2022/05/01 10:53:42;;;;;;;;;;;;;;;15.69;53.56;102398.00;2610406;36;19976;-55
2022/05/01 10:56:22;;;;;;;;;;;;;;;16.50;51.98;102390.03;2610661;36;20405;-51
2022/05/01 10:58:50;;;;;;;;;;;;;;;16.59;54.47;102386.50;2610725;36;19947;-51
2022/05/01 11:01:40;;;;;;;;;;;;;;;15.33;56.01;102390.19;2610781;36;19950;-51
2022/05/01 11:04:09;;;;;;;;;;;;;;;15.35;59.14;102387.31;2610050;36;20839;-54
2022/05/01 11:06:37;;;;;;;;;;;;;;;16.10;56.00;102383.56;2611359;36;20379;-54
2022/05/01 11:09:05;;;;;;;;;;;;;;;16.43;55.74;102380.72;2610466;36;19958;-53
2022/05/01 11:11:35;;;;;;;;;;;;;;;16.48;53.70;102374.88;2610199;36;19972;-50
2022/05/01 11:14:04;;;;;;;;;;;;;;;16.34;53.61;102367.94;2610320;36;19950;-52
2022/05/01 11:16:52;;;;;;;;;;;;;;;16.23;55.36;102377.91;2610569;31;19953;-53
2022/05/01 11:19:20;;;;;;;;;;;;;;;14.97;57.85;102370.59;2610861;36;19950;-53
2022/05/01 11:21:50;;;;;;;;;;;;;;;14.74;61.57;102372.50;2610269;31;19951;-57
2022/05/01 11:24:38;;;;;;;;;;;;;;;15.47;65.61;102369.16;2610139;36;20576;-51
2022/05/01 11:27:16;;;;;;;;;;;;;;;15.22;57.40;102371.22;2610554;31;19947;-52
2022/05/01 11:29:59;;;;;;;;;;;;;;;15.59;64.47;102373.50;2610308;36;19969;-56
2022/05/01 11:32:44;;;;;;;;;;;;;;;16.29;60.63;102363.78;2610852;31;20038;-54
2022/05/01 11:35:12;;;;;;;;;;;;;;;17.00;54.94;102364.69;2610260;36;19969;-59
2022/05/01 11:37:49;;;;;;;;;;;;;;;16.78;58.72;102358.50;2610427;36;20428;-58
2022/05/01 11:40:18;;;;;;;;;;;;;;;16.40;53.11;102357.41;2610405;31;19950;-51
2022/05/01 11:42:46;;;;;;;;;;;;;;;17.26;54.70;102345.97;2610972;36;20339;-55
2022/05/01 11:45:14;;;;;;;;;;;;;;;16.74;56.41;102348.03;2610553;36;19985;-50
2022/05/01 11:47:45;;;;;;;;;;;;;;;17.63;53.54;102345.19;2610550;36;19968;-52
2022/05/01 11:50:21;;;;;;;;;;;;;;;17.26;53.54;102345.97;2610914;36;20465;-54
2022/05/01 11:52:53;;;;;;;;;;;;;;;17.92;52.49;102338.84;2611171;36;19954;-50
2022/05/01 12:02:24;;;;;;;;;;;;;;;18.29;49.90;102338.00;2611078;36;19946;-50
2022/05/01 12:03:33;;;;;;;;;;;;;;;17.16;52.13;102329.63;2611360;36;20475;-51
2022/05/01 12:06:01;;;;;;;;;;;;;;;17.83;50.45;102329.69;2611095;36;19946;-53
2022/05/01 12:08:29;;;;;;;;;;;;;;;17.93;51.14;102323.38;2611109;31;19950;-54
2022/05/01 12:10:58;;;;;;;;;;;;;;;17.89;51.15;102311.00;2611306;36;19962;-53
2022/05/01 12:13:27;;;;;;;;;;;;;;;17.99;50.32;102309.13;2612030;36;19946;-54
2022/05/01 12:15:56;;;;;;;;;;;;;;;18.16;51.32;102307.50;2612436;36;20370;-57
2022/05/01 12:18:24;;;;;;;;;;;;;;;17.89;50.84;102301.00;2612588;36;19981;-51
2022/05/01 12:20:55;;;;;;;;;;;;;;;17.12;52.14;102306.47;2611268;36;20452;-56
2022/05/01 12:23:23;;;;;;;;;;;;;;;17.67;51.72;102313.94;2610615;36;20046;-50
2022/05/01 12:25:54;;;;;;;;;;;;;;;16.97;50.94;102302.44;2611973;36;20444;-54
2022/05/01 12:28:22;;;;;;;;;;;;;;;17.28;50.94;102302.28;2611769;31;19950;-53
2022/05/01 12:30:52;;;;;;;;;;;;;;;17.34;51.86;102297.13;2610946;36;19946;-56
2022/05/01 12:33:21;;;;;;;;;;;;;;;17.56;51.62;102299.66;2611122;36;19950;-50
2022/05/01 12:35:55;;;;;;;;;;;;;;;17.48;51.93;102287.63;2609700;36;19951;-55
2022/05/01 12:38:24;;;;;;;;;;;;;;;17.68;50.22;102293.91;2611077;36;20105;-54
2022/05/01 12:46:23;;;;;;;;;;;;;;;17.49;49.81;102302.09;2610653;36;19973;-53
2022/05/01 12:48:51;;;;;;;;;;;;;;;16.98;49.39;102298.72;2609099;31;21120;-55
2022/05/01 12:51:22;;;;;;;;;;;;;;;16.78;51.93;102301.41;2609081;36;20512;-55
2022/05/01 12:53:50;;;;;;;;;;;;;;;16.60;50.91;102298.50;2609027;36;19969;-52
2022/05/01 12:56:20;;;;;;;;;;;;;;;15.87;53.66;102306.88;2610008;36;20348;-51
2022/05/01 12:58:48;;;;;;;;;;;;;;;16.44;53.19;102303.63;2609967;36;20344;-49
2022/05/01 13:01:27;;;;;;;;;;;;;;;16.23;51.59;102288.28;2609856;36;20590;-51
2022/05/01 13:03:55;;;;;;;;;;;;;;;16.58;55.50;102299.66;2609543;31;19962;-56
2022/05/01 13:06:26;;;;;;;;;;;;;;;16.10;52.95;102298.53;2609659;36;19977;-57
2022/05/01 13:09:09;;;;;;;;;;;;;;;16.22;53.65;102294.69;2610110;36;20447;-53
2022/05/01 13:11:37;;;;;;;;;;;;;;;16.50;53.17;102296.78;2610413;36;19946;-54
2022/05/01 13:14:07;;;;;;;;;;;;;;;17.02;52.35;102292.00;2609097;36;19954;-51
2022/05/01 13:16:43;;;;;;;;;;;;;;;17.09;51.72;102290.44;2609268;36;19947;-54
2022/05/01 13:19:12;;;;;;;;;;;;;;;16.86;52.37;102297.97;2609387;36;20290;-51
2022/05/01 13:21:44;;;;;;;;;;;;;;;17.55;51.83;102285.19;2609431;36;19950;-54
2022/05/01 13:24:14;;;;;;;;;;;;;;;17.98;49.57;102282.94;2607027;36;19958;-51
2022/05/01 13:26:42;;;;;;;;;;;;;;;17.33;49.92;102287.22;2608893;36;19993;-55
2022/05/01 13:29:14;;;;;;;;;;;;;;;16.97;51.90;102278.84;2610037;31;20301;-55